sensor_id;sensor_type;location;lat;lon;timestamp;temperature;humidity
43651;DHT22;29247;50.944;5.382;2023-05-07T00:00:45;17.00;81.50
43651;DHT22;29247;50.944;5.382;2023-05-07T00:03:11;17.00;81.60
43651;DHT22;29247;50.944;5.382;2023-05-07T00:05:39;16.90;81.60
43651;DHT22;29247;50.944;5.382;2023-05-07T00:08:05;16.90;81.80
43651;DHT22;29247;50.944;5.382;2023-05-07T00:10:32;16.90;81.90
43651;DHT22;29247;50.944;5.382;2023-05-07T00:13:00;16.90;82.00
43651;DHT22;29247;50.944;5.382;2023-05-07T00:15:30;16.90;82.10
43651;DHT22;29247;50.944;5.382;2023-05-07T00:17:56;16.90;82.20
43651;DHT22;29247;50.944;5.382;2023-05-07T00:20:26;17.00;82.10
43651;DHT22;29247;50.944;5.382;2023-05-07T00:22:52;17.00;82.10
43651;DHT22;29247;50.944;5.382;2023-05-07T00:25:21;16.90;82.10
43651;DHT22;29247;50.944;5.382;2023-05-07T00:27:46;16.90;82.20
43651;DHT22;29247;50.944;5.382;2023-05-07T00:30:13;16.90;82.80
43651;DHT22;29247;50.944;5.382;2023-05-07T00:32:39;16.90;82.20
43651;DHT22;29247;50.944;5.382;2023-05-07T00:35:05;16.90;82.40
43651;DHT22;29247;50.944;5.382;2023-05-07T00:37:34;16.90;82.60
43651;DHT22;29247;50.944;5.382;2023-05-07T00:40:02;16.90;82.80
43651;DHT22;29247;50.944;5.382;2023-05-07T00:42:32;16.90;82.90
43651;DHT22;29247;50.944;5.382;2023-05-07T00:45:01;16.90;83.00
43651;DHT22;29247;50.944;5.382;2023-05-07T00:47:29;16.90;83.20
43651;DHT22;29247;50.944;5.382;2023-05-07T00:49:57;16.90;83.10
43651;DHT22;29247;50.944;5.382;2023-05-07T00:52:25;16.90;83.10
43651;DHT22;29247;50.944;5.382;2023-05-07T00:54:51;16.90;83.10
43651;DHT22;29247;50.944;5.382;2023-05-07T00:57:17;16.90;83.10
43651;DHT22;29247;50.944;5.382;2023-05-07T00:59:45;16.90;83.10
43651;DHT22;29247;50.944;5.382;2023-05-07T01:02:12;16.90;83.10
43651;DHT22;29247;50.944;5.382;2023-05-07T01:04:40;16.90;83.10
43651;DHT22;29247;50.944;5.382;2023-05-07T01:07:06;16.90;83.10
43651;DHT22;29247;50.944;5.382;2023-05-07T01:09:35;16.90;83.20
43651;DHT22;29247;50.944;5.382;2023-05-07T01:12:06;17.00;83.20
43651;DHT22;29247;50.944;5.382;2023-05-07T01:14:35;16.90;83.10
43651;DHT22;29247;50.944;5.382;2023-05-07T01:17:01;16.90;83.10
43651;DHT22;29247;50.944;5.382;2023-05-07T01:19:29;16.90;83.10
43651;DHT22;29247;50.944;5.382;2023-05-07T01:22:01;16.90;83.10
43651;DHT22;29247;50.944;5.382;2023-05-07T01:24:28;16.90;83.40
43651;DHT22;29247;50.944;5.382;2023-05-07T01:26:53;17.00;83.20
43651;DHT22;29247;50.944;5.382;2023-05-07T01:29:22;16.90;83.30
43651;DHT22;29247;50.944;5.382;2023-05-07T01:31:50;16.90;83.20
43651;DHT22;29247;50.944;5.382;2023-05-07T01:34:20;16.90;83.30
43651;DHT22;29247;50.944;5.382;2023-05-07T01:36:47;16.90;83.20
43651;DHT22;29247;50.944;5.382;2023-05-07T01:39:16;16.90;83.30
43651;DHT22;29247;50.944;5.382;2023-05-07T01:41:43;16.90;83.20
43651;DHT22;29247;50.944;5.382;2023-05-07T01:44:10;16.90;83.30
43651;DHT22;29247;50.944;5.382;2023-05-07T01:46:37;16.90;83.30
43651;DHT22;29247;50.944;5.382;2023-05-07T01:49:06;16.90;83.30
43651;DHT22;29247;50.944;5.382;2023-05-07T01:51:31;16.90;83.30
43651;DHT22;29247;50.944;5.382;2023-05-07T01:54:01;16.90;83.40
43651;DHT22;29247;50.944;5.382;2023-05-07T01:56:27;16.90;83.40
43651;DHT22;29247;50.944;5.382;2023-05-07T01:58:52;16.80;83.30
43651;DHT22;29247;50.944;5.382;2023-05-07T02:01:21;16.80;83.30
43651;DHT22;29247;50.944;5.382;2023-05-07T02:03:49;16.80;83.40
43651;DHT22;29247;50.944;5.382;2023-05-07T02:06:17;16.80;83.50
43651;DHT22;29247;50.944;5.382;2023-05-07T02:08:43;16.80;83.50
43651;DHT22;29247;50.944;5.382;2023-05-07T02:11:09;16.80;83.60
43651;DHT22;29247;50.944;5.382;2023-05-07T02:13:35;16.80;83.70
43651;DHT22;29247;50.944;5.382;2023-05-07T02:16:04;16.80;83.70
43651;DHT22;29247;50.944;5.382;2023-05-07T02:18:33;16.80;83.70
43651;DHT22;29247;50.944;5.382;2023-05-07T02:20:59;16.80;83.70
43651;DHT22;29247;50.944;5.382;2023-05-07T02:23:27;16.80;83.70
43651;DHT22;29247;50.944;5.382;2023-05-07T02:25:52;16.80;83.70
43651;DHT22;29247;50.944;5.382;2023-05-07T02:28:18;16.80;83.80
43651;DHT22;29247;50.944;5.382;2023-05-07T02:30:44;16.80;83.70
43651;DHT22;29247;50.944;5.382;2023-05-07T02:33:10;16.80;83.70
43651;DHT22;29247;50.944;5.382;2023-05-07T02:35:39;16.80;83.80
43651;DHT22;29247;50.944;5.382;2023-05-07T02:38:08;16.80;83.70
43651;DHT22;29247;50.944;5.382;2023-05-07T02:40:36;16.80;83.80
43651;DHT22;29247;50.944;5.382;2023-05-07T02:43:05;16.80;83.80
43651;DHT22;29247;50.944;5.382;2023-05-07T02:45:33;16.80;83.90
43651;DHT22;29247;50.944;5.382;2023-05-07T02:47:59;16.80;84.00
43651;DHT22;29247;50.944;5.382;2023-05-07T02:50:24;16.80;84.10
43651;DHT22;29247;50.944;5.382;2023-05-07T02:52:51;16.80;84.10
43651;DHT22;29247;50.944;5.382;2023-05-07T02:55:17;16.80;84.10
43651;DHT22;29247;50.944;5.382;2023-05-07T02:57:43;16.70;84.10
43651;DHT22;29247;50.944;5.382;2023-05-07T03:00:14;16.70;84.00
43651;DHT22;29247;50.944;5.382;2023-05-07T03:02:43;16.70;84.20
43651;DHT22;29247;50.944;5.382;2023-05-07T03:05:12;16.70;84.20
43651;DHT22;29247;50.944;5.382;2023-05-07T03:07:38;16.70;84.30
43651;DHT22;29247;50.944;5.382;2023-05-07T03:10:04;16.70;85.00
43651;DHT22;29247;50.944;5.382;2023-05-07T03:12:30;16.70;84.30
43651;DHT22;29247;50.944;5.382;2023-05-07T03:14:59;16.60;84.20
43651;DHT22;29247;50.944;5.382;2023-05-07T03:17:24;16.60;84.10
43651;DHT22;29247;50.944;5.382;2023-05-07T03:19:50;16.60;84.20
43651;DHT22;29247;50.944;5.382;2023-05-07T03:22:16;16.60;84.30
43651;DHT22;29247;50.944;5.382;2023-05-07T03:24:42;16.50;84.40
43651;DHT22;29247;50.944;5.382;2023-05-07T03:27:07;16.50;84.60
43651;DHT22;29247;50.944;5.382;2023-05-07T03:29:35;16.50;84.70
43651;DHT22;29247;50.944;5.382;2023-05-07T03:32:01;16.50;84.80
43651;DHT22;29247;50.944;5.382;2023-05-07T03:34:29;16.50;84.90
43651;DHT22;29247;50.944;5.382;2023-05-07T03:36:58;16.50;85.00
43651;DHT22;29247;50.944;5.382;2023-05-07T03:39:24;16.50;85.00
43651;DHT22;29247;50.944;5.382;2023-05-07T03:41:53;16.40;85.10
43651;DHT22;29247;50.944;5.382;2023-05-07T03:44:28;16.50;85.10
43651;DHT22;29247;50.944;5.382;2023-05-07T03:46:53;16.50;85.30
43651;DHT22;29247;50.944;5.382;2023-05-07T03:49:19;16.50;85.20
43651;DHT22;29247;50.944;5.382;2023-05-07T03:51:47;16.50;85.30
43651;DHT22;29247;50.944;5.382;2023-05-07T03:54:13;16.50;85.30
43651;DHT22;29247;50.944;5.382;2023-05-07T03:56:39;16.50;85.40
43651;DHT22;29247;50.944;5.382;2023-05-07T03:59:05;16.50;85.40
43651;DHT22;29247;50.944;5.382;2023-05-07T04:01:33;16.50;85.40
43651;DHT22;29247;50.944;5.382;2023-05-07T04:04:01;16.50;85.40
43651;DHT22;29247;50.944;5.382;2023-05-07T04:06:29;16.50;85.20
43651;DHT22;29247;50.944;5.382;2023-05-07T04:08:58;16.50;85.20
43651;DHT22;29247;50.944;5.382;2023-05-07T04:11:25;16.40;85.50
43651;DHT22;29247;50.944;5.382;2023-05-07T04:13:51;16.40;85.60
43651;DHT22;29247;50.944;5.382;2023-05-07T04:16:16;16.40;85.60
43651;DHT22;29247;50.944;5.382;2023-05-07T04:18:47;16.40;85.70
43651;DHT22;29247;50.944;5.382;2023-05-07T04:21:19;16.50;85.90
43651;DHT22;29247;50.944;5.382;2023-05-07T04:23:48;16.50;85.90
43651;DHT22;29247;50.944;5.382;2023-05-07T04:26:19;16.50;85.90
43651;DHT22;29247;50.944;5.382;2023-05-07T04:28:46;16.50;86.00
43651;DHT22;29247;50.944;5.382;2023-05-07T04:31:14;16.50;86.10
43651;DHT22;29247;50.944;5.382;2023-05-07T04:33:42;16.50;86.10
43651;DHT22;29247;50.944;5.382;2023-05-07T04:36:11;16.50;86.00
43651;DHT22;29247;50.944;5.382;2023-05-07T04:38:39;16.50;86.00
43651;DHT22;29247;50.944;5.382;2023-05-07T04:41:06;16.50;86.00
43651;DHT22;29247;50.944;5.382;2023-05-07T04:43:32;16.50;86.00
43651;DHT22;29247;50.944;5.382;2023-05-07T04:46:01;16.50;86.10
43651;DHT22;29247;50.944;5.382;2023-05-07T04:48:27;16.50;86.10
43651;DHT22;29247;50.944;5.382;2023-05-07T04:50:55;16.50;86.10
43651;DHT22;29247;50.944;5.382;2023-05-07T04:53:20;16.60;86.20
43651;DHT22;29247;50.944;5.382;2023-05-07T04:55:47;16.60;86.20
43651;DHT22;29247;50.944;5.382;2023-05-07T04:58:13;16.60;86.30
43651;DHT22;29247;50.944;5.382;2023-05-07T05:00:41;16.60;87.10
43651;DHT22;29247;50.944;5.382;2023-05-07T05:03:07;16.60;86.40
43651;DHT22;29247;50.944;5.382;2023-05-07T05:05:33;16.60;86.40
43651;DHT22;29247;50.944;5.382;2023-05-07T05:07:59;16.70;86.40
43651;DHT22;29247;50.944;5.382;2023-05-07T05:10:25;16.70;86.40
43651;DHT22;29247;50.944;5.382;2023-05-07T05:12:51;16.70;86.50
43651;DHT22;29247;50.944;5.382;2023-05-07T05:15:17;16.80;86.50
43651;DHT22;29247;50.944;5.382;2023-05-07T05:17:43;16.80;86.50
43651;DHT22;29247;50.944;5.382;2023-05-07T05:20:48;16.80;86.40
43651;DHT22;29247;50.944;5.382;2023-05-07T05:23:14;16.80;86.50
43651;DHT22;29247;50.944;5.382;2023-05-07T05:25:42;16.90;86.40
43651;DHT22;29247;50.944;5.382;2023-05-07T05:28:08;16.90;86.50
43651;DHT22;29247;50.944;5.382;2023-05-07T05:30:36;16.90;86.50
43651;DHT22;29247;50.944;5.382;2023-05-07T05:33:01;17.00;86.60
43651;DHT22;29247;50.944;5.382;2023-05-07T05:35:29;17.00;86.50
43651;DHT22;29247;50.944;5.382;2023-05-07T05:37:55;17.10;86.50
43651;DHT22;29247;50.944;5.382;2023-05-07T05:40:21;17.10;86.40
43651;DHT22;29247;50.944;5.382;2023-05-07T05:42:46;17.20;86.40
43651;DHT22;29247;50.944;5.382;2023-05-07T05:45:12;17.20;86.40
43651;DHT22;29247;50.944;5.382;2023-05-07T05:47:38;17.30;86.40
43651;DHT22;29247;50.944;5.382;2023-05-07T05:50:06;17.40;86.50
43651;DHT22;29247;50.944;5.382;2023-05-07T05:52:32;17.40;86.70
43651;DHT22;29247;50.944;5.382;2023-05-07T05:54:57;17.50;87.00
43651;DHT22;29247;50.944;5.382;2023-05-07T05:57:23;17.60;87.00
43651;DHT22;29247;50.944;5.382;2023-05-07T05:59:49;17.70;87.00
43651;DHT22;29247;50.944;5.382;2023-05-07T06:02:14;17.80;86.60
43651;DHT22;29247;50.944;5.382;2023-05-07T06:04:40;17.90;86.30
43651;DHT22;29247;50.944;5.382;2023-05-07T06:07:08;18.00;85.90
43651;DHT22;29247;50.944;5.382;2023-05-07T06:09:34;18.00;85.60
43651;DHT22;29247;50.944;5.382;2023-05-07T06:12:02;18.10;85.10
43651;DHT22;29247;50.944;5.382;2023-05-07T06:14:28;18.20;85.00
43651;DHT22;29247;50.944;5.382;2023-05-07T06:16:56;18.20;84.60
43651;DHT22;29247;50.944;5.382;2023-05-07T06:19:22;18.30;84.50
43651;DHT22;29247;50.944;5.382;2023-05-07T06:21:51;18.30;84.20
43651;DHT22;29247;50.944;5.382;2023-05-07T06:24:17;18.40;84.30
43651;DHT22;29247;50.944;5.382;2023-05-07T06:26:43;18.40;84.10
43651;DHT22;29247;50.944;5.382;2023-05-07T06:29:09;18.50;84.00
43651;DHT22;29247;50.944;5.382;2023-05-07T06:31:35;18.50;83.90
43651;DHT22;29247;50.944;5.382;2023-05-07T06:34:00;18.60;83.80
43651;DHT22;29247;50.944;5.382;2023-05-07T06:36:30;18.60;83.60
43651;DHT22;29247;50.944;5.382;2023-05-07T06:38:56;18.70;83.40
43651;DHT22;29247;50.944;5.382;2023-05-07T06:41:22;18.70;83.40
43651;DHT22;29247;50.944;5.382;2023-05-07T06:43:52;18.80;83.20
43651;DHT22;29247;50.944;5.382;2023-05-07T06:46:21;18.80;83.10
43651;DHT22;29247;50.944;5.382;2023-05-07T06:48:46;18.90;82.90
43651;DHT22;29247;50.944;5.382;2023-05-07T06:51:15;18.90;82.70
43651;DHT22;29247;50.944;5.382;2023-05-07T06:53:40;19.00;82.50
43651;DHT22;29247;50.944;5.382;2023-05-07T06:56:10;19.00;82.10
43651;DHT22;29247;50.944;5.382;2023-05-07T06:58:40;19.10;81.90
43651;DHT22;29247;50.944;5.382;2023-05-07T07:01:08;19.10;81.70
43651;DHT22;29247;50.944;5.382;2023-05-07T07:03:33;19.10;81.40
43651;DHT22;29247;50.944;5.382;2023-05-07T07:05:59;19.10;81.20
43651;DHT22;29247;50.944;5.382;2023-05-07T07:08:29;19.20;81.10
43651;DHT22;29247;50.944;5.382;2023-05-07T07:10:58;19.20;81.10
43651;DHT22;29247;50.944;5.382;2023-05-07T07:13:23;19.20;81.00
43651;DHT22;29247;50.944;5.382;2023-05-07T07:15:49;19.30;81.10
43651;DHT22;29247;50.944;5.382;2023-05-07T07:18:20;19.30;81.10
43651;DHT22;29247;50.944;5.382;2023-05-07T07:20:46;19.30;81.00
43651;DHT22;29247;50.944;5.382;2023-05-07T07:23:14;19.40;80.90
43651;DHT22;29247;50.944;5.382;2023-05-07T07:25:43;19.50;80.40
43651;DHT22;29247;50.944;5.382;2023-05-07T07:28:08;19.50;80.20
43651;DHT22;29247;50.944;5.382;2023-05-07T07:30:37;19.50;79.80
43651;DHT22;29247;50.944;5.382;2023-05-07T07:33:03;19.60;79.60
43651;DHT22;29247;50.944;5.382;2023-05-07T07:35:34;19.70;79.20
43651;DHT22;29247;50.944;5.382;2023-05-07T07:38:00;19.70;78.80
43651;DHT22;29247;50.944;5.382;2023-05-07T07:40:27;19.70;78.10
43651;DHT22;29247;50.944;5.382;2023-05-07T07:42:56;19.80;78.00
43651;DHT22;29247;50.944;5.382;2023-05-07T07:45:22;19.80;77.70
43651;DHT22;29247;50.944;5.382;2023-05-07T07:47:51;19.90;77.40
43651;DHT22;29247;50.944;5.382;2023-05-07T07:50:17;19.90;76.60
43651;DHT22;29247;50.944;5.382;2023-05-07T07:52:44;19.90;76.60
43651;DHT22;29247;50.944;5.382;2023-05-07T07:55:09;19.90;76.70
43651;DHT22;29247;50.944;5.382;2023-05-07T07:57:35;20.00;77.10
43651;DHT22;29247;50.944;5.382;2023-05-07T08:00:02;20.10;77.30
43651;DHT22;29247;50.944;5.382;2023-05-07T08:02:28;20.20;76.80
43651;DHT22;29247;50.944;5.382;2023-05-07T08:04:54;20.20;76.30
43651;DHT22;29247;50.944;5.382;2023-05-07T08:07:20;20.30;76.10
43651;DHT22;29247;50.944;5.382;2023-05-07T08:09:51;20.50;75.90
43651;DHT22;29247;50.944;5.382;2023-05-07T08:12:18;20.60;75.00
43651;DHT22;29247;50.944;5.382;2023-05-07T08:14:44;20.70;75.30
43651;DHT22;29247;50.944;5.382;2023-05-07T08:17:11;20.90;74.80
43651;DHT22;29247;50.944;5.382;2023-05-07T08:19:37;21.00;74.00
43651;DHT22;29247;50.944;5.382;2023-05-07T08:22:03;21.20;73.50
43651;DHT22;29247;50.944;5.382;2023-05-07T08:24:32;21.20;73.20
43651;DHT22;29247;50.944;5.382;2023-05-07T08:26:58;21.40;73.20
43651;DHT22;29247;50.944;5.382;2023-05-07T08:29:23;21.50;73.10
43651;DHT22;29247;50.944;5.382;2023-05-07T08:31:50;21.70;72.40
43651;DHT22;29247;50.944;5.382;2023-05-07T08:34:15;21.80;71.40
43651;DHT22;29247;50.944;5.382;2023-05-07T08:36:42;21.80;70.70
43651;DHT22;29247;50.944;5.382;2023-05-07T08:39:15;21.80;69.50
43651;DHT22;29247;50.944;5.382;2023-05-07T08:41:44;21.80;69.00
43651;DHT22;29247;50.944;5.382;2023-05-07T08:44:12;21.80;68.40
43651;DHT22;29247;50.944;5.382;2023-05-07T08:46:39;21.80;68.60
43651;DHT22;29247;50.944;5.382;2023-05-07T08:49:07;21.70;68.90
43651;DHT22;29247;50.944;5.382;2023-05-07T08:51:36;21.80;69.10
43651;DHT22;29247;50.944;5.382;2023-05-07T08:54:06;21.70;68.70
43651;DHT22;29247;50.944;5.382;2023-05-07T08:56:35;21.70;68.70
43651;DHT22;29247;50.944;5.382;2023-05-07T08:59:01;21.70;68.60
43651;DHT22;29247;50.944;5.382;2023-05-07T09:01:29;21.70;68.60
43651;DHT22;29247;50.944;5.382;2023-05-07T09:03:55;21.70;68.00
43651;DHT22;29247;50.944;5.382;2023-05-07T09:06:21;21.70;68.00
43651;DHT22;29247;50.944;5.382;2023-05-07T09:08:51;21.70;68.80
43651;DHT22;29247;50.944;5.382;2023-05-07T09:11:23;21.80;69.30
43651;DHT22;29247;50.944;5.382;2023-05-07T09:13:54;21.90;69.20
43651;DHT22;29247;50.944;5.382;2023-05-07T09:16:21;22.10;68.90
43651;DHT22;29247;50.944;5.382;2023-05-07T09:18:53;22.20;68.60
43651;DHT22;29247;50.944;5.382;2023-05-07T09:21:24;22.40;68.20
43651;DHT22;29247;50.944;5.382;2023-05-07T09:23:54;22.60;68.10
43651;DHT22;29247;50.944;5.382;2023-05-07T09:26:22;22.70;67.10
43651;DHT22;29247;50.944;5.382;2023-05-07T09:28:49;22.80;67.00
43651;DHT22;29247;50.944;5.382;2023-05-07T09:31:17;22.90;66.50
43651;DHT22;29247;50.944;5.382;2023-05-07T09:33:46;23.00;66.10
43651;DHT22;29247;50.944;5.382;2023-05-07T09:36:12;23.20;66.20
43651;DHT22;29247;50.944;5.382;2023-05-07T09:38:38;23.30;65.00
43651;DHT22;29247;50.944;5.382;2023-05-07T09:41:11;23.40;63.90
43651;DHT22;29247;50.944;5.382;2023-05-07T09:43:40;23.40;64.30
43651;DHT22;29247;50.944;5.382;2023-05-07T09:46:12;23.50;63.70
43651;DHT22;29247;50.944;5.382;2023-05-07T09:48:45;23.50;63.40
43651;DHT22;29247;50.944;5.382;2023-05-07T09:51:40;23.70;64.10
43651;DHT22;29247;50.944;5.382;2023-05-07T09:54:10;23.80;64.20
43651;DHT22;29247;50.944;5.382;2023-05-07T09:56:36;24.00;63.40
43651;DHT22;29247;50.944;5.382;2023-05-07T09:59:03;24.00;62.50
43651;DHT22;29247;50.944;5.382;2023-05-07T10:01:36;24.00;62.00
43651;DHT22;29247;50.944;5.382;2023-05-07T10:04:03;24.10;61.40
43651;DHT22;29247;50.944;5.382;2023-05-07T10:06:38;24.00;61.00
43651;DHT22;29247;50.944;5.382;2023-05-07T10:09:05;24.00;61.00
43651;DHT22;29247;50.944;5.382;2023-05-07T10:11:32;24.00;60.60
43651;DHT22;29247;50.944;5.382;2023-05-07T10:14:02;24.00;60.30
43651;DHT22;29247;50.944;5.382;2023-05-07T10:16:31;23.90;60.40
43651;DHT22;29247;50.944;5.382;2023-05-07T10:18:58;23.90;59.80
43651;DHT22;29247;50.944;5.382;2023-05-07T10:21:27;23.80;60.20
43651;DHT22;29247;50.944;5.382;2023-05-07T10:24:20;23.80;60.60
43651;DHT22;29247;50.944;5.382;2023-05-07T10:26:49;23.70;60.90
43651;DHT22;29247;50.944;5.382;2023-05-07T10:31:59;23.70;61.20
43651;DHT22;29247;50.944;5.382;2023-05-07T10:34:42;23.70;61.00
43651;DHT22;29247;50.944;5.382;2023-05-07T10:37:09;23.60;61.00
43651;DHT22;29247;50.944;5.382;2023-05-07T10:39:36;23.60;61.10
43651;DHT22;29247;50.944;5.382;2023-05-07T10:42:13;23.50;60.80
43651;DHT22;29247;50.944;5.382;2023-05-07T10:44:39;23.50;60.80
43651;DHT22;29247;50.944;5.382;2023-05-07T10:47:10;23.40;61.20
43651;DHT22;29247;50.944;5.382;2023-05-07T10:52:22;23.40;61.80
43651;DHT22;29247;50.944;5.382;2023-05-07T10:57:46;23.20;61.80
43651;DHT22;29247;50.944;5.382;2023-05-07T11:05:29;23.20;63.20
43651;DHT22;29247;50.944;5.382;2023-05-07T11:08:05;23.20;62.70
43651;DHT22;29247;50.944;5.382;2023-05-07T11:10:59;23.10;62.70
43651;DHT22;29247;50.944;5.382;2023-05-07T11:13:46;23.10;63.20
43651;DHT22;29247;50.944;5.382;2023-05-07T11:16:23;23.00;63.20
43651;DHT22;29247;50.944;5.382;2023-05-07T11:18:56;23.00;63.20
43651;DHT22;29247;50.944;5.382;2023-05-07T11:21:36;22.90;63.50
43651;DHT22;29247;50.944;5.382;2023-05-07T11:24:09;22.90;64.00
43651;DHT22;29247;50.944;5.382;2023-05-07T11:26:49;22.80;63.90
43651;DHT22;29247;50.944;5.382;2023-05-07T11:29:17;22.80;64.60
43651;DHT22;29247;50.944;5.382;2023-05-07T11:31:43;22.80;65.10
43651;DHT22;29247;50.944;5.382;2023-05-07T11:34:16;22.70;64.60
43651;DHT22;29247;50.944;5.382;2023-05-07T11:36:48;22.70;65.00
43651;DHT22;29247;50.944;5.382;2023-05-07T11:39:28;22.60;65.50
43651;DHT22;29247;50.944;5.382;2023-05-07T11:41:57;22.60;66.10
43651;DHT22;29247;50.944;5.382;2023-05-07T11:44:22;22.50;66.50
43651;DHT22;29247;50.944;5.382;2023-05-07T11:46:49;22.50;66.60
43651;DHT22;29247;50.944;5.382;2023-05-07T11:49:15;22.40;67.20
43651;DHT22;29247;50.944;5.382;2023-05-07T11:51:41;22.40;67.70
43651;DHT22;29247;50.944;5.382;2023-05-07T11:54:09;22.40;67.90
43651;DHT22;29247;50.944;5.382;2023-05-07T11:56:39;22.30;68.10
43651;DHT22;29247;50.944;5.382;2023-05-07T11:59:07;22.30;68.60
43651;DHT22;29247;50.944;5.382;2023-05-07T12:01:35;22.30;68.70
43651;DHT22;29247;50.944;5.382;2023-05-07T12:04:03;22.30;68.90
43651;DHT22;29247;50.944;5.382;2023-05-07T12:06:30;22.30;69.20
43651;DHT22;29247;50.944;5.382;2023-05-07T12:08:58;22.30;69.30
43651;DHT22;29247;50.944;5.382;2023-05-07T12:11:25;22.30;69.40
43651;DHT22;29247;50.944;5.382;2023-05-07T12:13:54;22.30;69.40
43651;DHT22;29247;50.944;5.382;2023-05-07T12:16:22;22.30;69.10
43651;DHT22;29247;50.944;5.382;2023-05-07T12:18:48;22.30;69.20
43651;DHT22;29247;50.944;5.382;2023-05-07T12:21:18;22.20;68.90
43651;DHT22;29247;50.944;5.382;2023-05-07T12:23:44;22.20;68.70
43651;DHT22;29247;50.944;5.382;2023-05-07T12:26:11;22.20;69.00
43651;DHT22;29247;50.944;5.382;2023-05-07T12:28:39;22.10;69.50
43651;DHT22;29247;50.944;5.382;2023-05-07T12:31:08;22.10;69.70
43651;DHT22;29247;50.944;5.382;2023-05-07T12:33:35;22.10;69.40
43651;DHT22;29247;50.944;5.382;2023-05-07T12:36:05;22.10;69.40
43651;DHT22;29247;50.944;5.382;2023-05-07T12:38:35;22.00;69.00
43651;DHT22;29247;50.944;5.382;2023-05-07T12:41:02;22.00;69.10
43651;DHT22;29247;50.944;5.382;2023-05-07T12:43:28;22.00;69.50
43651;DHT22;29247;50.944;5.382;2023-05-07T12:45:56;22.00;69.90
43651;DHT22;29247;50.944;5.382;2023-05-07T12:48:23;21.90;69.80
43651;DHT22;29247;50.944;5.382;2023-05-07T12:50:50;21.90;69.70
43651;DHT22;29247;50.944;5.382;2023-05-07T12:53:24;21.90;69.20
43651;DHT22;29247;50.944;5.382;2023-05-07T12:55:52;21.80;69.30
43651;DHT22;29247;50.944;5.382;2023-05-07T12:58:20;21.80;69.60
43651;DHT22;29247;50.944;5.382;2023-05-07T13:00:51;21.80;69.10
43651;DHT22;29247;50.944;5.382;2023-05-07T13:03:27;21.80;69.00
43651;DHT22;29247;50.944;5.382;2023-05-07T13:06:02;21.80;68.70
43651;DHT22;29247;50.944;5.382;2023-05-07T13:08:36;21.80;68.00
43651;DHT22;29247;50.944;5.382;2023-05-07T13:11:07;21.80;68.00
43651;DHT22;29247;50.944;5.382;2023-05-07T13:13:33;21.80;67.20
43651;DHT22;29247;50.944;5.382;2023-05-07T13:16:00;21.80;67.20
43651;DHT22;29247;50.944;5.382;2023-05-07T13:18:28;21.80;67.90
43651;DHT22;29247;50.944;5.382;2023-05-07T13:20:54;21.80;67.60
43651;DHT22;29247;50.944;5.382;2023-05-07T13:23:22;21.90;68.40
43651;DHT22;29247;50.944;5.382;2023-05-07T13:25:49;21.90;68.70
43651;DHT22;29247;50.944;5.382;2023-05-07T13:28:15;22.00;69.10
43651;DHT22;29247;50.944;5.382;2023-05-07T13:30:41;22.00;69.60
43651;DHT22;29247;50.944;5.382;2023-05-07T13:33:07;22.10;69.10
43651;DHT22;29247;50.944;5.382;2023-05-07T13:35:33;22.10;68.80
43651;DHT22;29247;50.944;5.382;2023-05-07T13:38:04;22.10;68.70
43651;DHT22;29247;50.944;5.382;2023-05-07T13:40:30;22.10;67.20
43651;DHT22;29247;50.944;5.382;2023-05-07T13:42:57;22.10;66.80
43651;DHT22;29247;50.944;5.382;2023-05-07T13:45:24;22.10;67.20
43651;DHT22;29247;50.944;5.382;2023-05-07T13:47:51;22.10;67.20
43651;DHT22;29247;50.944;5.382;2023-05-07T13:50:17;22.10;67.20
43651;DHT22;29247;50.944;5.382;2023-05-07T13:52:44;22.10;67.70
43651;DHT22;29247;50.944;5.382;2023-05-07T13:55:20;22.10;67.30
43651;DHT22;29247;50.944;5.382;2023-05-07T13:57:46;22.20;67.70
43651;DHT22;29247;50.944;5.382;2023-05-07T14:00:13;22.20;67.70
43651;DHT22;29247;50.944;5.382;2023-05-07T14:02:42;22.20;67.40
43651;DHT22;29247;50.944;5.382;2023-05-07T14:05:13;22.20;68.10
43651;DHT22;29247;50.944;5.382;2023-05-07T14:07:41;22.20;68.60
43651;DHT22;29247;50.944;5.382;2023-05-07T14:10:09;22.20;68.70
43651;DHT22;29247;50.944;5.382;2023-05-07T14:12:36;22.20;68.80
43651;DHT22;29247;50.944;5.382;2023-05-07T14:15:03;22.20;68.00
43651;DHT22;29247;50.944;5.382;2023-05-07T14:17:29;22.30;68.20
43651;DHT22;29247;50.944;5.382;2023-05-07T14:19:55;22.10;68.30
43651;DHT22;29247;50.944;5.382;2023-05-07T14:22:21;22.10;68.30
43651;DHT22;29247;50.944;5.382;2023-05-07T14:24:48;22.20;68.90
43651;DHT22;29247;50.944;5.382;2023-05-07T14:27:15;22.20;68.60
43651;DHT22;29247;50.944;5.382;2023-05-07T14:29:40;22.20;67.80
43651;DHT22;29247;50.944;5.382;2023-05-07T14:32:06;22.20;67.80
43651;DHT22;29247;50.944;5.382;2023-05-07T14:34:35;22.10;67.40
43651;DHT22;29247;50.944;5.382;2023-05-07T14:37:03;22.10;67.50
43651;DHT22;29247;50.944;5.382;2023-05-07T14:39:29;22.10;67.80
43651;DHT22;29247;50.944;5.382;2023-05-07T14:41:55;22.10;68.40
43651;DHT22;29247;50.944;5.382;2023-05-07T14:44:24;22.10;68.60
43651;DHT22;29247;50.944;5.382;2023-05-07T14:46:53;22.20;68.80
43651;DHT22;29247;50.944;5.382;2023-05-07T14:49:18;22.20;68.50
43651;DHT22;29247;50.944;5.382;2023-05-07T14:51:45;22.20;68.30
43651;DHT22;29247;50.944;5.382;2023-05-07T14:54:14;22.20;68.00
43651;DHT22;29247;50.944;5.382;2023-05-07T14:56:40;22.10;67.90
43651;DHT22;29247;50.944;5.382;2023-05-07T14:59:07;22.10;67.60
43651;DHT22;29247;50.944;5.382;2023-05-07T15:01:34;22.10;67.20
43651;DHT22;29247;50.944;5.382;2023-05-07T15:04:03;22.10;67.50
43651;DHT22;29247;50.944;5.382;2023-05-07T15:06:28;22.00;67.50
43651;DHT22;29247;50.944;5.382;2023-05-07T15:08:54;22.00;67.70
43651;DHT22;29247;50.944;5.382;2023-05-07T15:11:21;22.00;67.40
43651;DHT22;29247;50.944;5.382;2023-05-07T15:13:47;22.00;67.70
43651;DHT22;29247;50.944;5.382;2023-05-07T15:16:15;22.10;68.20
43651;DHT22;29247;50.944;5.382;2023-05-07T15:18:42;22.10;68.40
43651;DHT22;29247;50.944;5.382;2023-05-07T15:21:10;22.10;67.90
43651;DHT22;29247;50.944;5.382;2023-05-07T15:23:36;22.10;68.40
43651;DHT22;29247;50.944;5.382;2023-05-07T15:26:05;22.10;68.40
43651;DHT22;29247;50.944;5.382;2023-05-07T15:28:33;22.10;67.90
43651;DHT22;29247;50.944;5.382;2023-05-07T15:30:58;22.00;68.40
43651;DHT22;29247;50.944;5.382;2023-05-07T15:33:24;22.00;68.40
43651;DHT22;29247;50.944;5.382;2023-05-07T15:35:50;22.10;69.10
43651;DHT22;29247;50.944;5.382;2023-05-07T15:38:15;22.10;69.00
43651;DHT22;29247;50.944;5.382;2023-05-07T15:40:41;22.10;68.90
43651;DHT22;29247;50.944;5.382;2023-05-07T15:43:11;22.10;68.60
43651;DHT22;29247;50.944;5.382;2023-05-07T15:45:41;22.10;68.40
43651;DHT22;29247;50.944;5.382;2023-05-07T15:48:08;22.10;68.10